sensor_id;sensor_type;location;lat;lon;timestamp;P1;durP1;ratioP1;P2;durP2;ratioP2
82926;SDS011;72788;40.218;44.486;2023-12-14T00:01:14;38.78;;;17.02;;
82926;SDS011;72788;40.218;44.486;2023-12-14T00:03:40;37.83;;;16.08;;
82926;SDS011;72788;40.218;44.486;2023-12-14T00:06:12;36.88;;;15.25;;
82926;SDS011;72788;40.218;44.486;2023-12-14T00:08:39;29.17;;;14.23;;
82926;SDS011;72788;40.218;44.486;2023-12-14T00:11:08;36.13;;;15.95;;
82926;SDS011;72788;40.218;44.486;2023-12-14T00:13:35;35.15;;;14.60;;
82926;SDS011;72788;40.218;44.486;2023-12-14T00:16:01;37.67;;;15.55;;
82926;SDS011;72788;40.218;44.486;2023-12-14T00:18:28;32.30;;;15.70;;
82926;SDS011;72788;40.218;44.486;2023-12-14T00:20:54;31.75;;;13.77;;
82926;SDS011;72788;40.218;44.486;2023-12-14T00:23:20;33.67;;;14.88;;
82926;SDS011;72788;40.218;44.486;2023-12-14T00:25:46;38.10;;;16.17;;
82926;SDS011;72788;40.218;44.486;2023-12-14T00:28:11;36.55;;;14.60;;
82926;SDS011;72788;40.218;44.486;2023-12-14T00:30:37;34.25;;;15.73;;
82926;SDS011;72788;40.218;44.486;2023-12-14T00:33:03;42.60;;;16.95;;
82926;SDS011;72788;40.218;44.486;2023-12-14T00:35:28;42.58;;;17.13;;
82926;SDS011;72788;40.218;44.486;2023-12-14T00:37:54;41.70;;;17.00;;
82926;SDS011;72788;40.218;44.486;2023-12-14T00:40:20;43.70;;;17.50;;
82926;SDS011;72788;40.218;44.486;2023-12-14T00:42:45;41.15;;;17.25;;
82926;SDS011;72788;40.218;44.486;2023-12-14T00:45:11;47.58;;;19.55;;
82926;SDS011;72788;40.218;44.486;2023-12-14T00:47:37;48.78;;;18.25;;
82926;SDS011;72788;40.218;44.486;2023-12-14T00:50:03;41.33;;;17.67;;
82926;SDS011;72788;40.218;44.486;2023-12-14T00:52:29;42.60;;;18.00;;
82926;SDS011;72788;40.218;44.486;2023-12-14T00:54:55;44.17;;;19.52;;
82926;SDS011;72788;40.218;44.486;2023-12-14T00:57:21;46.58;;;18.80;;
82926;SDS011;72788;40.218;44.486;2023-12-14T00:59:46;46.53;;;19.60;;
82926;SDS011;72788;40.218;44.486;2023-12-14T01:02:12;42.10;;;18.30;;
82926;SDS011;72788;40.218;44.486;2023-12-14T01:04:38;48.03;;;18.15;;
82926;SDS011;72788;40.218;44.486;2023-12-14T01:07:04;47.72;;;20.23;;
82926;SDS011;72788;40.218;44.486;2023-12-14T01:09:29;40.58;;;17.48;;
82926;SDS011;72788;40.218;44.486;2023-12-14T01:11:55;48.67;;;20.25;;
82926;SDS011;72788;40.218;44.486;2023-12-14T01:14:21;54.83;;;19.45;;
82926;SDS011;72788;40.218;44.486;2023-12-14T01:16:46;55.38;;;21.27;;
82926;SDS011;72788;40.218;44.486;2023-12-14T01:19:12;50.80;;;20.70;;
82926;SDS011;72788;40.218;44.486;2023-12-14T01:21:38;51.50;;;20.10;;
82926;SDS011;72788;40.218;44.486;2023-12-14T01:24:04;53.30;;;20.48;;
82926;SDS011;72788;40.218;44.486;2023-12-14T01:26:30;59.80;;;19.35;;
82926;SDS011;72788;40.218;44.486;2023-12-14T01:28:55;55.35;;;20.33;;
82926;SDS011;72788;40.218;44.486;2023-12-14T01:31:21;50.35;;;19.30;;
82926;SDS011;72788;40.218;44.486;2023-12-14T01:33:50;62.33;;;22.55;;
82926;SDS011;72788;40.218;44.486;2023-12-14T01:36:20;68.38;;;22.83;;
82926;SDS011;72788;40.218;44.486;2023-12-14T01:38:46;59.05;;;23.50;;
82926;SDS011;72788;40.218;44.486;2023-12-14T01:41:13;63.13;;;21.10;;
82926;SDS011;72788;40.218;44.486;2023-12-14T01:43:38;56.78;;;21.58;;
82926;SDS011;72788;40.218;44.486;2023-12-14T01:46:04;50.75;;;21.40;;
82926;SDS011;72788;40.218;44.486;2023-12-14T01:48:29;68.85;;;23.25;;
82926;SDS011;72788;40.218;44.486;2023-12-14T01:50:55;60.88;;;22.13;;
82926;SDS011;72788;40.218;44.486;2023-12-14T01:53:21;67.05;;;21.35;;
82926;SDS011;72788;40.218;44.486;2023-12-14T01:55:47;65.82;;;23.90;;
82926;SDS011;72788;40.218;44.486;2023-12-14T01:58:13;62.40;;;22.15;;
82926;SDS011;72788;40.218;44.486;2023-12-14T02:03:29;62.47;;;22.38;;
82926;SDS011;72788;40.218;44.486;2023-12-14T02:05:54;70.28;;;23.38;;
82926;SDS011;72788;40.218;44.486;2023-12-14T02:08:20;64.97;;;23.63;;
82926;SDS011;72788;40.218;44.486;2023-12-14T02:10:46;65.03;;;22.77;;
82926;SDS011;72788;40.218;44.486;2023-12-14T02:13:13;61.78;;;22.15;;
82926;SDS011;72788;40.218;44.486;2023-12-14T02:15:39;58.58;;;21.58;;
82926;SDS011;72788;40.218;44.486;2023-12-14T02:18:04;56.28;;;20.20;;
82926;SDS011;72788;40.218;44.486;2023-12-14T02:20:30;48.95;;;19.85;;
82926;SDS011;72788;40.218;44.486;2023-12-14T02:22:56;53.28;;;20.27;;
82926;SDS011;72788;40.218;44.486;2023-12-14T02:25:22;56.40;;;21.23;;
82926;SDS011;72788;40.218;44.486;2023-12-14T02:27:48;52.40;;;19.75;;
82926;SDS011;72788;40.218;44.486;2023-12-14T02:30:15;52.35;;;18.40;;
82926;SDS011;72788;40.218;44.486;2023-12-14T02:32:42;45.83;;;18.08;;
82926;SDS011;72788;40.218;44.486;2023-12-14T02:35:07;44.80;;;18.98;;
82926;SDS011;72788;40.218;44.486;2023-12-14T02:37:34;45.90;;;18.58;;
82926;SDS011;72788;40.218;44.486;2023-12-14T02:40:05;50.38;;;18.33;;
82926;SDS011;72788;40.218;44.486;2023-12-14T02:42:32;48.08;;;17.55;;
82926;SDS011;72788;40.218;44.486;2023-12-14T02:44:58;39.58;;;16.00;;
82926;SDS011;72788;40.218;44.486;2023-12-14T02:47:24;40.50;;;15.52;;
82926;SDS011;72788;40.218;44.486;2023-12-14T02:49:49;36.80;;;15.27;;
82926;SDS011;72788;40.218;44.486;2023-12-14T02:52:15;36.47;;;13.63;;
82926;SDS011;72788;40.218;44.486;2023-12-14T02:54:41;31.27;;;13.43;;
82926;SDS011;72788;40.218;44.486;2023-12-14T02:57:06;38.53;;;14.48;;
82926;SDS011;72788;40.218;44.486;2023-12-14T02:59:32;33.22;;;13.82;;
82926;SDS011;72788;40.218;44.486;2023-12-14T03:01:58;33.28;;;13.00;;
82926;SDS011;72788;40.218;44.486;2023-12-14T03:04:24;37.20;;;13.77;;
82926;SDS011;72788;40.218;44.486;2023-12-14T03:06:50;38.03;;;13.77;;
82926;SDS011;72788;40.218;44.486;2023-12-14T03:09:16;36.60;;;13.70;;
82926;SDS011;72788;40.218;44.486;2023-12-14T03:11:44;38.60;;;14.40;;
82926;SDS011;72788;40.218;44.486;2023-12-14T03:14:09;32.80;;;12.63;;
82926;SDS011;72788;40.218;44.486;2023-12-14T03:16:36;31.27;;;12.95;;
82926;SDS011;72788;40.218;44.486;2023-12-14T03:19:02;29.70;;;11.35;;
82926;SDS011;72788;40.218;44.486;2023-12-14T03:21:28;29.05;;;11.75;;
82926;SDS011;72788;40.218;44.486;2023-12-14T03:23:54;28.73;;;10.55;;
82926;SDS011;72788;40.218;44.486;2023-12-14T03:26:20;27.65;;;11.40;;
82926;SDS011;72788;40.218;44.486;2023-12-14T03:28:45;32.22;;;11.63;;
82926;SDS011;72788;40.218;44.486;2023-12-14T03:31:11;33.40;;;12.05;;
82926;SDS011;72788;40.218;44.486;2023-12-14T03:33:38;30.83;;;12.48;;
82926;SDS011;72788;40.218;44.486;2023-12-14T03:36:04;34.80;;;11.90;;
82926;SDS011;72788;40.218;44.486;2023-12-14T03:38:31;32.03;;;11.35;;
82926;SDS011;72788;40.218;44.486;2023-12-14T03:40:57;25.15;;;10.88;;
82926;SDS011;72788;40.218;44.486;2023-12-14T03:43:23;28.15;;;11.52;;
82926;SDS011;72788;40.218;44.486;2023-12-14T03:45:48;34.53;;;13.30;;
82926;SDS011;72788;40.218;44.486;2023-12-14T03:48:14;27.25;;;11.73;;
82926;SDS011;72788;40.218;44.486;2023-12-14T03:50:40;32.33;;;12.23;;
82926;SDS011;72788;40.218;44.486;2023-12-14T03:53:05;29.23;;;11.40;;
82926;SDS011;72788;40.218;44.486;2023-12-14T03:55:31;32.42;;;12.70;;
82926;SDS011;72788;40.218;44.486;2023-12-14T03:57:58;32.30;;;12.23;;
82926;SDS011;72788;40.218;44.486;2023-12-14T04:00:23;28.90;;;11.80;;
82926;SDS011;72788;40.218;44.486;2023-12-14T04:02:49;25.77;;;11.02;;
82926;SDS011;72788;40.218;44.486;2023-12-14T04:05:15;33.28;;;12.00;;
82926;SDS011;72788;40.218;44.486;2023-12-14T04:07:40;26.17;;;10.98;;
82926;SDS011;72788;40.218;44.486;2023-12-14T04:10:09;29.17;;;11.50;;
82926;SDS011;72788;40.218;44.486;2023-12-14T04:12:36;26.33;;;11.20;;
82926;SDS011;72788;40.218;44.486;2023-12-14T04:15:02;25.10;;;10.68;;
82926;SDS011;72788;40.218;44.486;2023-12-14T04:17:30;27.52;;;11.85;;
82926;SDS011;72788;40.218;44.486;2023-12-14T04:19:55;26.77;;;11.27;;
82926;SDS011;72788;40.218;44.486;2023-12-14T04:22:21;26.80;;;11.43;;
82926;SDS011;72788;40.218;44.486;2023-12-14T04:24:47;27.63;;;12.15;;
82926;SDS011;72788;40.218;44.486;2023-12-14T04:27:13;27.17;;;10.98;;
82926;SDS011;72788;40.218;44.486;2023-12-14T04:29:39;29.25;;;12.63;;
82926;SDS011;72788;40.218;44.486;2023-12-14T04:32:05;27.90;;;12.48;;
82926;SDS011;72788;40.218;44.486;2023-12-14T04:34:31;26.90;;;10.98;;
82926;SDS011;72788;40.218;44.486;2023-12-14T04:36:56;25.40;;;11.35;;
82926;SDS011;72788;40.218;44.486;2023-12-14T04:39:26;28.55;;;11.68;;
82926;SDS011;72788;40.218;44.486;2023-12-14T04:41:52;26.38;;;11.57;;
82926;SDS011;72788;40.218;44.486;2023-12-14T04:44:19;32.92;;;12.02;;
82926;SDS011;72788;40.218;44.486;2023-12-14T04:46:45;32.97;;;12.23;;
82926;SDS011;72788;40.218;44.486;2023-12-14T04:49:10;27.58;;;11.80;;
82926;SDS011;72788;40.218;44.486;2023-12-14T04:51:36;26.05;;;10.32;;
82926;SDS011;72788;40.218;44.486;2023-12-14T04:54:02;34.63;;;13.10;;
82926;SDS011;72788;40.218;44.486;2023-12-14T04:56:29;31.60;;;11.57;;
82926;SDS011;72788;40.218;44.486;2023-12-14T04:58:55;29.10;;;13.35;;
82926;SDS011;72788;40.218;44.486;2023-12-14T05:01:20;28.65;;;13.15;;
82926;SDS011;72788;40.218;44.486;2023-12-14T05:03:46;27.95;;;12.48;;
82926;SDS011;72788;40.218;44.486;2023-12-14T05:06:12;31.73;;;11.18;;
82926;SDS011;72788;40.218;44.486;2023-12-14T05:08:38;31.63;;;11.75;;
82926;SDS011;72788;40.218;44.486;2023-12-14T05:11:04;29.85;;;11.77;;
82926;SDS011;72788;40.218;44.486;2023-12-14T05:13:29;29.10;;;13.07;;
82926;SDS011;72788;40.218;44.486;2023-12-14T05:15:55;36.22;;;13.65;;
82926;SDS011;72788;40.218;44.486;2023-12-14T05:18:23;37.33;;;12.70;;
82926;SDS011;72788;40.218;44.486;2023-12-14T05:20:50;38.83;;;13.38;;
82926;SDS011;72788;40.218;44.486;2023-12-14T05:23:16;37.05;;;13.63;;
82926;SDS011;72788;40.218;44.486;2023-12-14T05:25:42;37.28;;;14.52;;
82926;SDS011;72788;40.218;44.486;2023-12-14T05:28:08;32.67;;;13.90;;
82926;SDS011;72788;40.218;44.486;2023-12-14T05:30:33;36.35;;;14.57;;
82926;SDS011;72788;40.218;44.486;2023-12-14T05:32:59;37.40;;;15.05;;
82926;SDS011;72788;40.218;44.486;2023-12-14T05:35:25;39.72;;;15.43;;
82926;SDS011;72788;40.218;44.486;2023-12-14T05:37:50;38.80;;;17.88;;
82926;SDS011;72788;40.218;44.486;2023-12-14T05:40:16;38.92;;;16.30;;
82926;SDS011;72788;40.218;44.486;2023-12-14T05:42:42;43.15;;;15.15;;
82926;SDS011;72788;40.218;44.486;2023-12-14T05:45:08;32.40;;;13.95;;
82926;SDS011;72788;40.218;44.486;2023-12-14T05:47:34;36.20;;;14.90;;
82926;SDS011;72788;40.218;44.486;2023-12-14T05:50:00;30.50;;;14.05;;
82926;SDS011;72788;40.218;44.486;2023-12-14T05:52:26;36.85;;;15.23;;
82926;SDS011;72788;40.218;44.486;2023-12-14T05:54:52;30.00;;;13.52;;
82926;SDS011;72788;40.218;44.486;2023-12-14T05:57:18;28.83;;;13.27;;
82926;SDS011;72788;40.218;44.486;2023-12-14T05:59:44;30.33;;;12.18;;
82926;SDS011;72788;40.218;44.486;2023-12-14T06:02:10;33.22;;;12.93;;
82926;SDS011;72788;40.218;44.486;2023-12-14T06:04:35;29.67;;;12.40;;
82926;SDS011;72788;40.218;44.486;2023-12-14T06:07:01;30.95;;;12.43;;
82926;SDS011;72788;40.218;44.486;2023-12-14T06:09:27;34.40;;;12.98;;
82926;SDS011;72788;40.218;44.486;2023-12-14T06:11:59;28.65;;;13.05;;
82926;SDS011;72788;40.218;44.486;2023-12-14T06:14:26;35.80;;;13.85;;
82926;SDS011;72788;40.218;44.486;2023-12-14T06:16:52;33.58;;;14.02;;
82926;SDS011;72788;40.218;44.486;2023-12-14T06:19:21;29.55;;;13.55;;
82926;SDS011;72788;40.218;44.486;2023-12-14T06:21:47;37.90;;;14.73;;
82926;SDS011;72788;40.218;44.486;2023-12-14T06:24:14;38.38;;;15.15;;
82926;SDS011;72788;40.218;44.486;2023-12-14T06:26:43;40.92;;;15.88;;
82926;SDS011;72788;40.218;44.486;2023-12-14T06:29:09;38.92;;;15.88;;
82926;SDS011;72788;40.218;44.486;2023-12-14T06:31:36;48.15;;;16.98;;
82926;SDS011;72788;40.218;44.486;2023-12-14T06:34:02;42.80;;;16.80;;
82926;SDS011;72788;40.218;44.486;2023-12-14T06:36:32;41.45;;;17.90;;
82926;SDS011;72788;40.218;44.486;2023-12-14T06:39:01;48.95;;;19.15;;
82926;SDS011;72788;40.218;44.486;2023-12-14T06:41:28;45.95;;;17.88;;
82926;SDS011;72788;40.218;44.486;2023-12-14T06:43:54;46.70;;;18.20;;
82926;SDS011;72788;40.218;44.486;2023-12-14T06:46:20;46.40;;;18.98;;
82926;SDS011;72788;40.218;44.486;2023-12-14T06:48:47;47.67;;;18.33;;
82926;SDS011;72788;40.218;44.486;2023-12-14T06:51:13;56.13;;;23.35;;
82926;SDS011;72788;40.218;44.486;2023-12-14T06:53:42;52.80;;;21.63;;
82926;SDS011;72788;40.218;44.486;2023-12-14T06:56:08;47.28;;;18.95;;
82926;SDS011;72788;40.218;44.486;2023-12-14T06:58:39;46.42;;;18.90;;
82926;SDS011;72788;40.218;44.486;2023-12-14T07:01:05;44.05;;;19.70;;
82926;SDS011;72788;40.218;44.486;2023-12-14T07:03:32;50.30;;;19.33;;
82926;SDS011;72788;40.218;44.486;2023-12-14T07:05:58;44.45;;;19.55;;
82926;SDS011;72788;40.218;44.486;2023-12-14T07:08:24;47.53;;;20.02;;
82926;SDS011;72788;40.218;44.486;2023-12-14T07:10:50;47.72;;;19.95;;
82926;SDS011;72788;40.218;44.486;2023-12-14T07:13:15;45.58;;;19.75;;
82926;SDS011;72788;40.218;44.486;2023-12-14T07:15:41;45.90;;;21.23;;
82926;SDS011;72788;40.218;44.486;2023-12-14T07:18:07;52.13;;;21.10;;
82926;SDS011;72788;40.218;44.486;2023-12-14T07:20:33;53.72;;;21.73;;
82926;SDS011;72788;40.218;44.486;2023-12-14T07:22:58;49.17;;;20.45;;
82926;SDS011;72788;40.218;44.486;2023-12-14T07:25:24;48.05;;;21.45;;
82926;SDS011;72788;40.218;44.486;2023-12-14T07:27:50;50.88;;;22.15;;
82926;SDS011;72788;40.218;44.486;2023-12-14T07:30:16;44.13;;;19.38;;
82926;SDS011;72788;40.218;44.486;2023-12-14T07:32:42;46.85;;;20.00;;
82926;SDS011;72788;40.218;44.486;2023-12-14T07:35:07;54.22;;;21.48;;
82926;SDS011;72788;40.218;44.486;2023-12-14T07:37:33;62.90;;;24.73;;
82926;SDS011;72788;40.218;44.486;2023-12-14T07:39:59;59.53;;;23.95;;
82926;SDS011;72788;40.218;44.486;2023-12-14T07:42:25;61.90;;;23.60;;
82926;SDS011;72788;40.218;44.486;2023-12-14T07:44:52;63.83;;;25.23;;
82926;SDS011;72788;40.218;44.486;2023-12-14T07:47:19;71.18;;;26.73;;
82926;SDS011;72788;40.218;44.486;2023-12-14T07:49:45;62.15;;;25.52;;
82926;SDS011;72788;40.218;44.486;2023-12-14T07:52:11;62.80;;;26.90;;
82926;SDS011;72788;40.218;44.486;2023-12-14T07:54:38;67.25;;;26.33;;
82926;SDS011;72788;40.218;44.486;2023-12-14T07:57:05;68.15;;;24.80;;
82926;SDS011;72788;40.218;44.486;2023-12-14T07:59:30;64.65;;;25.90;;
82926;SDS011;72788;40.218;44.486;2023-12-14T08:01:56;58.42;;;23.75;;
82926;SDS011;72788;40.218;44.486;2023-12-14T08:04:22;65.22;;;25.23;;
82926;SDS011;72788;40.218;44.486;2023-12-14T08:06:48;73.90;;;26.60;;
82926;SDS011;72788;40.218;44.486;2023-12-14T08:09:14;72.57;;;27.88;;
82926;SDS011;72788;40.218;44.486;2023-12-14T08:11:40;68.50;;;28.23;;
82926;SDS011;72788;40.218;44.486;2023-12-14T08:14:05;70.55;;;28.13;;
82926;SDS011;72788;40.218;44.486;2023-12-14T08:16:31;78.55;;;28.67;;
82926;SDS011;72788;40.218;44.486;2023-12-14T08:18:57;69.82;;;27.83;;
82926;SDS011;72788;40.218;44.486;2023-12-14T08:21:23;68.57;;;28.25;;
82926;SDS011;72788;40.218;44.486;2023-12-14T08:23:49;77.72;;;28.52;;
82926;SDS011;72788;40.218;44.486;2023-12-14T08:26:14;69.97;;;25.92;;
82926;SDS011;72788;40.218;44.486;2023-12-14T08:28:40;72.47;;;26.25;;
82926;SDS011;72788;40.218;44.486;2023-12-14T08:31:06;68.28;;;26.85;;
82926;SDS011;72788;40.218;44.486;2023-12-14T08:33:31;79.68;;;29.63;;
82926;SDS011;72788;40.218;44.486;2023-12-14T08:35:57;76.75;;;27.85;;
82926;SDS011;72788;40.218;44.486;2023-12-14T08:38:23;69.65;;;25.92;;
82926;SDS011;72788;40.218;44.486;2023-12-14T08:40:49;73.63;;;26.98;;
82926;SDS011;72788;40.218;44.486;2023-12-14T08:43:16;69.05;;;27.60;;
82926;SDS011;72788;40.218;44.486;2023-12-14T08:45:42;65.15;;;26.38;;
82926;SDS011;72788;40.218;44.486;2023-12-14T08:48:08;68.93;;;27.08;;
82926;SDS011;72788;40.218;44.486;2023-12-14T08:50:33;66.57;;;26.13;;
82926;SDS011;72788;40.218;44.486;2023-12-14T08:52:59;69.18;;;26.45;;
82926;SDS011;72788;40.218;44.486;2023-12-14T08:55:25;65.82;;;27.25;;
82926;SDS011;72788;40.218;44.486;2023-12-14T08:57:51;62.78;;;25.25;;
82926;SDS011;72788;40.218;44.486;2023-12-14T09:00:17;69.60;;;28.52;;
82926;SDS011;72788;40.218;44.486;2023-12-14T09:02:44;80.85;;;32.42;;
82926;SDS011;72788;40.218;44.486;2023-12-14T09:05:14;70.00;;;30.85;;
82926;SDS011;72788;40.218;44.486;2023-12-14T09:07:41;77.47;;;33.25;;
82926;SDS011;72788;40.218;44.486;2023-12-14T09:10:07;78.70;;;33.83;;
82926;SDS011;72788;40.218;44.486;2023-12-14T09:12:34;81.47;;;33.70;;
82926;SDS011;72788;40.218;44.486;2023-12-14T09:15:00;80.95;;;34.35;;
82926;SDS011;72788;40.218;44.486;2023-12-14T09:17:26;91.78;;;35.22;;
82926;SDS011;72788;40.218;44.486;2023-12-14T09:19:57;79.35;;;34.30;;
82926;SDS011;72788;40.218;44.486;2023-12-14T09:22:24;89.38;;;34.15;;
82926;SDS011;72788;40.218;44.486;2023-12-14T09:24:50;68.45;;;29.58;;
82926;SDS011;72788;40.218;44.486;2023-12-14T09:27:16;72.80;;;30.05;;
82926;SDS011;72788;40.218;44.486;2023-12-14T09:29:42;72.80;;;29.67;;
82926;SDS011;72788;40.218;44.486;2023-12-14T09:32:08;74.00;;;31.58;;
82926;SDS011;72788;40.218;44.486;2023-12-14T09:34:34;76.43;;;30.42;;
82926;SDS011;72788;40.218;44.486;2023-12-14T09:37:00;78.13;;;33.35;;
82926;SDS011;72788;40.218;44.486;2023-12-14T09:39:25;77.63;;;33.70;;
82926;SDS011;72788;40.218;44.486;2023-12-14T09:42:00;106.85;;;40.53;;
82926;SDS011;72788;40.218;44.486;2023-12-14T09:44:29;86.65;;;38.10;;
82926;SDS011;72788;40.218;44.486;2023-12-14T09:46:56;70.20;;;32.60;;
82926;SDS011;72788;40.218;44.486;2023-12-14T09:49:25;72.65;;;31.10;;
82926;SDS011;72788;40.218;44.486;2023-12-14T09:51:58;74.50;;;30.55;;
82926;SDS011;72788;40.218;44.486;2023-12-14T09:54:25;59.15;;;28.73;;
82926;SDS011;72788;40.218;44.486;2023-12-14T09:56:52;65.80;;;29.23;;
82926;SDS011;72788;40.218;44.486;2023-12-14T09:59:18;61.20;;;28.38;;
82926;SDS011;72788;40.218;44.486;2023-12-14T10:01:44;53.13;;;26.48;;
82926;SDS011;72788;40.218;44.486;2023-12-14T10:04:12;49.22;;;22.13;;
82926;SDS011;72788;40.218;44.486;2023-12-14T10:06:39;44.75;;;19.95;;
82926;SDS011;72788;40.218;44.486;2023-12-14T10:09:07;41.70;;;19.70;;
82926;SDS011;72788;40.218;44.486;2023-12-14T10:11:41;39.95;;;16.88;;
82926;SDS011;72788;40.218;44.486;2023-12-14T10:14:21;35.53;;;15.00;;
82926;SDS011;72788;40.218;44.486;2023-12-14T10:16:48;37.10;;;16.25;;
82926;SDS011;72788;40.218;44.486;2023-12-14T10:19:16;36.47;;;14.95;;
82926;SDS011;72788;40.218;44.486;2023-12-14T10:21:43;38.05;;;17.75;;
82926;SDS011;72788;40.218;44.486;2023-12-14T10:24:08;27.70;;;11.73;;
82926;SDS011;72788;40.218;44.486;2023-12-14T10:26:35;28.08;;;10.93;;
82926;SDS011;72788;40.218;44.486;2023-12-14T10:29:01;30.25;;;14.60;;
82926;SDS011;72788;40.218;44.486;2023-12-14T10:31:30;26.67;;;10.68;;
82926;SDS011;72788;40.218;44.486;2023-12-14T10:33:56;29.98;;;11.45;;
82926;SDS011;72788;40.218;44.486;2023-12-14T10:36:24;32.50;;;12.07;;
82926;SDS011;72788;40.218;44.486;2023-12-14T10:38:55;27.80;;;11.75;;
82926;SDS011;72788;40.218;44.486;2023-12-14T10:41:23;33.25;;;13.57;;
82926;SDS011;72788;40.218;44.486;2023-12-14T10:43:58;28.77;;;12.38;;
82926;SDS011;72788;40.218;44.486;2023-12-14T10:46:27;39.47;;;11.80;;
82926;SDS011;72788;40.218;44.486;2023-12-14T10:48:53;28.77;;;12.40;;
82926;SDS011;72788;40.218;44.486;2023-12-14T10:51:20;23.50;;;11.02;;
82926;SDS011;72788;40.218;44.486;2023-12-14T10:53:48;29.27;;;12.45;;
82926;SDS011;72788;40.218;44.486;2023-12-14T10:56:17;27.33;;;11.40;;
82926;SDS011;72788;40.218;44.486;2023-12-14T10:58:46;27.35;;;11.73;;
82926;SDS011;72788;40.218;44.486;2023-12-14T11:01:14;29.58;;;12.43;;
82926;SDS011;72788;40.218;44.486;2023-12-14T11:03:41;30.73;;;11.65;;
82926;SDS011;72788;40.218;44.486;2023-12-14T11:08:59;27.98;;;10.93;;
82926;SDS011;72788;40.218;44.486;2023-12-14T11:11:38;30.10;;;12.48;;
82926;SDS011;72788;40.218;44.486;2023-12-14T11:14:08;31.08;;;13.05;;
82926;SDS011;72788;40.218;44.486;2023-12-14T11:16:35;27.52;;;12.23;;
82926;SDS011;72788;40.218;44.486;2023-12-14T11:21:46;27.63;;;11.50;;
82926;SDS011;72788;40.218;44.486;2023-12-14T11:24:18;30.40;;;11.48;;
82926;SDS011;72788;40.218;44.486;2023-12-14T11:26:44;28.70;;;13.02;;
82926;SDS011;72788;40.218;44.486;2023-12-14T11:29:10;28.50;;;12.77;;
82926;SDS011;72788;40.218;44.486;2023-12-14T11:31:37;26.77;;;12.13;;
82926;SDS011;72788;40.218;44.486;2023-12-14T11:34:02;34.53;;;13.60;;
82926;SDS011;72788;40.218;44.486;2023-12-14T11:36:32;31.30;;;13.38;;
82926;SDS011;72788;40.218;44.486;2023-12-14T11:38:58;34.53;;;13.57;;
82926;SDS011;72788;40.218;44.486;2023-12-14T11:41:24;35.90;;;13.32;;
82926;SDS011;72788;40.218;44.486;2023-12-14T11:43:54;32.45;;;13.15;;
82926;SDS011;72788;40.218;44.486;2023-12-14T11:46:20;29.20;;;11.15;;
82926;SDS011;72788;40.218;44.486;2023-12-14T11:48:46;29.45;;;13.27;;
82926;SDS011;72788;40.218;44.486;2023-12-14T11:51:16;27.80;;;11.35;;
82926;SDS011;72788;40.218;44.486;2023-12-14T11:53:49;31.08;;;12.65;;
82926;SDS011;72788;40.218;44.486;2023-12-14T11:56:19;30.85;;;10.65;;
82926;SDS011;72788;40.218;44.486;2023-12-14T11:58:45;31.90;;;12.60;;
82926;SDS011;72788;40.218;44.486;2023-12-14T12:03:38;28.05;;;12.20;;
82926;SDS011;72788;40.218;44.486;2023-12-14T12:06:04;32.75;;;13.18;;
82926;SDS011;72788;40.218;44.486;2023-12-14T12:08:30;25.92;;;11.85;;
82926;SDS011;72788;40.218;44.486;2023-12-14T12:10:56;25.33;;;11.55;;
82926;SDS011;72788;40.218;44.486;2023-12-14T12:13:22;26.10;;;11.52;;
82926;SDS011;72788;40.218;44.486;2023-12-14T12:15:48;26.75;;;12.18;;
82926;SDS011;72788;40.218;44.486;2023-12-14T12:18:15;31.05;;;10.73;;
82926;SDS011;72788;40.218;44.486;2023-12-14T12:20:42;26.30;;;10.50;;
82926;SDS011;72788;40.218;44.486;2023-12-14T12:23:08;23.50;;;10.20;;
82926;SDS011;72788;40.218;44.486;2023-12-14T12:25:34;32.33;;;11.30;;
82926;SDS011;72788;40.218;44.486;2023-12-14T12:28:00;27.27;;;12.25;;
82926;SDS011;72788;40.218;44.486;2023-12-14T12:30:27;27.48;;;12.00;;
82926;SDS011;72788;40.218;44.486;2023-12-14T12:32:53;24.98;;;11.23;;
82926;SDS011;72788;40.218;44.486;2023-12-14T12:35:20;27.35;;;10.75;;
82926;SDS011;72788;40.218;44.486;2023-12-14T12:37:50;26.73;;;10.88;;
82926;SDS011;72788;40.218;44.486;2023-12-14T12:40:22;28.10;;;10.90;;
82926;SDS011;72788;40.218;44.486;2023-12-14T12:42:51;30.52;;;10.80;;
82926;SDS011;72788;40.218;44.486;2023-12-14T12:45:17;22.17;;;10.23;;
82926;SDS011;72788;40.218;44.486;2023-12-14T12:47:44;29.90;;;10.95;;
82926;SDS011;72788;40.218;44.486;2023-12-14T12:50:10;31.42;;;11.25;;
82926;SDS011;72788;40.218;44.486;2023-12-14T12:52:36;27.30;;;11.52;;
82926;SDS011;72788;40.218;44.486;2023-12-14T12:55:02;28.20;;;10.75;;
82926;SDS011;72788;40.218;44.486;2023-12-14T12:57:29;31.50;;;12.65;;
82926;SDS011;72788;40.218;44.486;2023-12-14T12:59:55;27.45;;;9.85;;
82926;SDS011;72788;40.218;44.486;2023-12-14T13:02:21;24.77;;;10.80;;
82926;SDS011;72788;40.218;44.486;2023-12-14T13:04:46;31.77;;;10.73;;
82926;SDS011;72788;40.218;44.486;2023-12-14T13:07:12;30.70;;;11.25;;
82926;SDS011;72788;40.218;44.486;2023-12-14T13:09:38;28.02;;;11.38;;
82926;SDS011;72788;40.218;44.486;2023-12-14T13:12:04;27.17;;;11.48;;
82926;SDS011;72788;40.218;44.486;2023-12-14T13:14:30;28.02;;;10.90;;
82926;SDS011;72788;40.218;44.486;2023-12-14T13:16:59;27.52;;;11.50;;
82926;SDS011;72788;40.218;44.486;2023-12-14T13:19:24;32.55;;;12.52;;
82926;SDS011;72788;40.218;44.486;2023-12-14T13:21:51;24.35;;;10.70;;
82926;SDS011;72788;40.218;44.486;2023-12-14T13:24:17;28.80;;;11.70;;
82926;SDS011;72788;40.218;44.486;2023-12-14T13:26:43;25.65;;;10.63;;
82926;SDS011;72788;40.218;44.486;2023-12-14T13:29:08;27.02;;;10.70;;
82926;SDS011;72788;40.218;44.486;2023-12-14T13:31:35;27.08;;;11.10;;
82926;SDS011;72788;40.218;44.486;2023-12-14T13:34:01;25.83;;;9.90;;
82926;SDS011;72788;40.218;44.486;2023-12-14T13:36:27;25.83;;;10.02;;
82926;SDS011;72788;40.218;44.486;2023-12-14T13:38:52;28.88;;;11.85;;
82926;SDS011;72788;40.218;44.486;2023-12-14T13:41:19;34.55;;;13.25;;
82926;SDS011;72788;40.218;44.486;2023-12-14T13:43:44;26.40;;;11.20;;
82926;SDS011;72788;40.218;44.486;2023-12-14T13:46:11;29.48;;;13.35;;
82926;SDS011;72788;40.218;44.486;2023-12-14T13:48:37;34.65;;;15.40;;
82926;SDS011;72788;40.218;44.486;2023-12-14T13:51:02;37.88;;;14.57;;
82926;SDS011;72788;40.218;44.486;2023-12-14T13:53:28;32.47;;;13.80;;
82926;SDS011;72788;40.218;44.486;2023-12-14T13:55:54;33.20;;;13.45;;
82926;SDS011;72788;40.218;44.486;2023-12-14T13:58:19;38.58;;;15.27;;
82926;SDS011;72788;40.218;44.486;2023-12-14T14:00:45;35.65;;;14.23;;
82926;SDS011;72788;40.218;44.486;2023-12-14T14:03:11;43.42;;;15.75;;
82926;SDS011;72788;40.218;44.486;2023-12-14T14:05:38;33.28;;;13.45;;
82926;SDS011;72788;40.218;44.486;2023-12-14T14:08:04;31.65;;;12.80;;
82926;SDS011;72788;40.218;44.486;2023-12-14T14:10:29;26.10;;;11.25;;
82926;SDS011;72788;40.218;44.486;2023-12-14T14:12:55;29.00;;;11.52;;
82926;SDS011;72788;40.218;44.486;2023-12-14T14:15:21;31.95;;;12.40;;